createdAt,value
2018-02-18T00:00:52.155Z,16.33
2018-02-18T00:03:19.614Z,17.97
2018-02-18T00:05:47.088Z,18.00
2018-02-18T00:08:14.580Z,20.30
2018-02-18T00:10:42.039Z,21.17
2018-02-18T00:13:09.930Z,24.23
2018-02-18T00:15:38.155Z,23.33
2018-02-18T00:18:05.622Z,23.33
2018-02-18T00:20:35.562Z,21.43
2018-02-18T00:23:03.785Z,22.30
2018-02-18T00:25:31.249Z,22.90
2018-02-18T00:27:58.790Z,23.30
2018-02-18T00:30:26.257Z,21.67
2018-02-18T00:32:54.040Z,19.30
2018-02-18T00:35:21.515Z,20.27
2018-02-18T00:37:48.990Z,18.50
2018-02-18T00:40:18.102Z,21.00
2018-02-18T00:42:45.554Z,19.20
2018-02-18T00:45:14.205Z,18.93
2018-02-18T00:47:41.669Z,19.47
2018-02-18T00:50:09.141Z,19.07
2018-02-18T00:52:37.376Z,20.50
2018-02-18T00:55:04.836Z,19.40
2018-02-18T00:57:32.294Z,20.33
2018-02-18T00:59:59.754Z,20.10
2018-02-18T01:02:27.230Z,19.60
2018-02-18T01:04:55.414Z,19.60
2018-02-18T01:07:23.644Z,22.07
2018-02-18T01:09:51.105Z,21.33
2018-02-18T01:12:18.579Z,23.50
2018-02-18T01:14:46.040Z,21.10
2018-02-18T01:17:13.586Z,21.87
2018-02-18T01:19:41.050Z,20.40
2018-02-18T01:22:08.506Z,20.40
2018-02-18T01:24:35.964Z,20.67
2018-02-18T01:27:03.443Z,19.30
2018-02-18T01:29:32.163Z,19.20
2018-02-18T01:31:59.827Z,19.43
2018-02-18T01:34:27.818Z,20.00
2018-02-18T01:36:55.297Z,18.67
2018-02-18T01:39:22.757Z,18.47
2018-02-18T01:41:50.204Z,18.73
2018-02-18T01:44:17.758Z,20.77
2018-02-18T01:46:45.217Z,23.13
2018-02-18T01:49:13.464Z,24.40
2018-02-18T01:51:43.525Z,25.07
2018-02-18T01:54:12.297Z,23.83
2018-02-18T01:56:39.889Z,24.00
2018-02-18T01:59:08.105Z,24.60
2018-02-18T02:01:36.366Z,21.73
2018-02-18T02:04:04.268Z,22.33
2018-02-18T02:06:31.788Z,21.37
2018-02-18T02:08:59.229Z,21.30
2018-02-18T02:11:26.686Z,20.67
2018-02-18T02:13:54.142Z,20.37
2018-02-18T02:16:22.129Z,20.43
2018-02-18T02:18:49.585Z,21.57
2018-02-18T02:21:17.064Z,22.20
2018-02-18T02:23:44.516Z,22.63
2018-02-18T02:26:12.714Z,25.30
2018-02-18T02:28:40.175Z,25.07
2018-02-18T02:31:08.457Z,25.67
2018-02-18T02:33:37.442Z,24.57
2018-02-18T02:36:04.901Z,25.07
2018-02-18T02:38:34.940Z,25.20
2018-02-18T02:41:03.175Z,23.47
2018-02-18T02:43:31.337Z,21.23
2018-02-18T02:45:58.797Z,21.17
2018-02-18T02:48:26.362Z,19.90
2018-02-18T02:50:53.837Z,19.03
2018-02-18T02:53:22.105Z,18.07
2018-02-18T02:55:49.572Z,18.60
2018-02-18T02:58:17.115Z,18.57
2018-02-18T03:00:44.578Z,19.70
2018-02-18T03:03:12.794Z,23.27
2018-02-18T03:05:40.250Z,23.43
2018-02-18T03:08:07.717Z,23.17
2018-02-18T03:10:35.174Z,21.10
2018-02-18T03:13:02.854Z,20.83
2018-02-18T03:15:30.722Z,19.33
2018-02-18T03:17:58.166Z,19.10
2018-02-18T03:20:27.474Z,20.00
2018-02-18T03:22:54.948Z,18.90
2018-02-18T03:25:23.028Z,19.60
2018-02-18T03:27:50.573Z,21.17
2018-02-18T03:30:19.651Z,22.03
2018-02-18T03:32:47.106Z,22.03
2018-02-18T03:35:14.569Z,21.37
2018-02-18T03:37:42.041Z,19.23
2018-02-18T03:40:09.972Z,18.40
2018-02-18T03:42:37.765Z,17.67
2018-02-18T03:45:05.214Z,17.60
2018-02-18T03:47:32.779Z,18.13
2018-02-18T03:50:00.230Z,18.43
2018-02-18T03:52:28.024Z,19.20
2018-02-18T03:54:55.480Z,18.80
2018-02-18T03:57:22.932Z,21.47
2018-02-18T03:59:50.387Z,22.00
2018-02-18T04:02:17.837Z,22.40
2018-02-18T04:04:45.289Z,22.47
2018-02-18T04:07:12.737Z,23.63
2018-02-18T04:09:40.196Z,24.07
2018-02-18T04:12:08.062Z,24.47
2018-02-18T04:14:35.517Z,22.70
2018-02-18T04:17:02.990Z,21.80
2018-02-18T04:19:30.453Z,19.80
2018-02-18T04:21:58.129Z,20.83
2018-02-18T04:24:26.358Z,18.60
2018-02-18T04:26:55.637Z,20.37
2018-02-18T04:29:23.105Z,24.10
2018-02-18T04:31:50.557Z,27.90
2018-02-18T04:34:18.021Z,23.87
2018-02-18T04:36:45.478Z,19.73
2018-02-18T04:39:12.937Z,20.17
2018-02-18T04:41:40.405Z,18.63
2018-02-18T04:44:07.865Z,18.30
2018-02-18T04:46:35.325Z,18.67
2018-02-18T04:49:03.310Z,20.37
2018-02-18T04:51:31.530Z,19.23
2018-02-18T04:53:59.517Z,19.43
2018-02-18T04:56:26.994Z,18.43
2018-02-18T04:58:54.453Z,18.93
2018-02-18T05:01:21.905Z,18.13
2018-02-18T05:03:49.372Z,19.23
2018-02-18T05:06:16.820Z,18.03
2018-02-18T05:08:44.281Z,17.20
2018-02-18T05:11:11.949Z,17.67
2018-02-18T05:13:40.725Z,19.20
2018-02-18T05:16:08.185Z,20.53
2018-02-18T05:18:42.214Z,21.63
2018-02-18T05:21:12.106Z,20.53
2018-02-18T05:23:40.899Z,21.30
2018-02-18T05:26:09.004Z,18.73
2018-02-18T05:28:36.470Z,19.20
2018-02-18T05:31:03.930Z,15.93
2018-02-18T05:33:31.409Z,17.50
2018-02-18T05:35:58.866Z,17.27
2018-02-18T05:38:26.326Z,17.07
2018-02-18T05:40:53.788Z,17.50
2018-02-18T05:43:21.255Z,19.37
2018-02-18T05:45:48.718Z,19.37
2018-02-18T05:48:16.477Z,19.43
2018-02-18T05:50:46.517Z,18.90
2018-02-18T05:53:14.747Z,19.93
2018-02-18T05:55:42.198Z,22.67
2018-02-18T05:58:13.366Z,22.00
2018-02-18T06:00:40.816Z,23.67
2018-02-18T06:03:08.690Z,25.77
2018-02-18T06:05:36.137Z,32.87
2018-02-18T06:08:03.605Z,30.73
2018-02-18T06:10:31.066Z,30.27
2018-02-18T06:12:59.089Z,35.63
2018-02-18T06:15:26.540Z,38.73
2018-02-18T06:17:54.393Z,36.10
2018-02-18T06:20:21.972Z,37.93
2018-02-18T06:22:49.438Z,38.50
2018-02-18T06:25:17.609Z,35.97
2018-02-18T06:27:45.064Z,33.70
2018-02-18T06:30:12.968Z,31.70
2018-02-18T06:32:40.890Z,33.70
2018-02-18T06:35:09.067Z,33.77
2018-02-18T06:37:36.526Z,31.90
2018-02-18T06:40:03.986Z,34.33
2018-02-18T06:42:32.117Z,31.00
2018-02-18T06:45:00.130Z,41.70
2018-02-18T06:47:27.979Z,35.80
2018-02-18T06:49:55.452Z,33.53
2018-02-18T06:52:23.801Z,45.80
2018-02-18T06:54:52.569Z,44.67
2018-02-18T06:57:20.810Z,42.37
2018-02-18T06:59:48.654Z,35.90
2018-02-18T07:02:16.537Z,36.40
2018-02-18T07:04:44.002Z,30.17
2018-02-18T07:07:18.292Z,28.73
2018-02-18T07:09:45.753Z,26.47
2018-02-18T07:12:13.715Z,31.00
2018-02-18T07:14:41.166Z,31.33
2018-02-18T07:17:09.175Z,30.60
2018-02-18T07:19:39.326Z,32.03
2018-02-18T07:22:06.774Z,34.53
2018-02-18T07:24:34.237Z,40.23
2018-02-18T07:27:01.704Z,36.43
2018-02-18T07:29:29.174Z,34.50
2018-02-18T07:31:57.345Z,34.40
2018-02-18T07:34:24.799Z,34.60
2018-02-18T07:36:52.263Z,34.30
2018-02-18T07:39:19.722Z,31.73
2018-02-18T07:41:47.877Z,31.33
2018-02-18T07:44:15.338Z,32.63
2018-02-18T07:46:43.217Z,33.30
2018-02-18T07:49:10.672Z,31.70
2018-02-18T07:51:38.149Z,31.47
2018-02-18T07:54:05.611Z,30.57
2018-02-18T07:56:33.597Z,31.80
2018-02-18T07:59:01.055Z,29.97
2018-02-18T08:01:28.497Z,27.77
2018-02-18T08:03:58.407Z,28.40
2018-02-18T08:06:26.449Z,27.93
2018-02-18T08:08:54.329Z,27.13
2018-02-18T08:11:21.780Z,27.37
2018-02-18T08:13:49.226Z,27.67
2018-02-18T08:16:16.681Z,25.93
2018-02-18T08:18:44.139Z,25.20
2018-02-18T08:21:11.596Z,25.87
2018-02-18T08:23:39.136Z,26.77
2018-02-18T08:26:06.584Z,26.80
2018-02-18T08:28:34.038Z,26.70
2018-02-18T08:31:02.018Z,26.23
2018-02-18T08:33:29.475Z,27.10
2018-02-18T08:35:56.953Z,26.37
2018-02-18T08:38:24.962Z,27.33
2018-02-18T08:40:52.410Z,25.17
2018-02-18T08:43:20.399Z,26.30
2018-02-18T08:45:48.742Z,26.30
2018-02-18T08:48:16.429Z,26.17
2018-02-18T08:50:45.358Z,27.60
2018-02-18T08:53:12.798Z,25.83
2018-02-18T08:55:40.252Z,30.93
2018-02-18T08:58:07.708Z,26.20
2018-02-18T09:00:35.594Z,27.33
2018-02-18T09:03:03.053Z,27.20
2018-02-18T09:05:30.498Z,25.97
2018-02-18T09:07:57.960Z,26.07
2018-02-18T09:10:25.864Z,26.77
2018-02-18T09:12:53.421Z,25.43
2018-02-18T09:15:21.562Z,26.83
2018-02-18T09:17:49.017Z,26.07
2018-02-18T09:20:17.285Z,25.43
2018-02-18T09:22:44.752Z,24.67
2018-02-18T09:25:12.626Z,24.93
2018-02-18T09:27:40.088Z,25.00
2018-02-18T09:30:07.546Z,31.00
2018-02-18T09:32:34.994Z,25.00
2018-02-18T09:35:02.451Z,26.90
2018-02-18T09:37:29.908Z,25.17
2018-02-18T09:39:57.922Z,25.20
2018-02-18T09:42:26.574Z,25.60
2018-02-18T09:44:55.561Z,25.90
2018-02-18T09:47:23.125Z,24.90
2018-02-18T09:49:50.604Z,24.10
2018-02-18T09:52:18.065Z,23.67
2018-02-18T09:54:46.318Z,25.00
2018-02-18T09:57:14.798Z,23.80
2018-02-18T09:59:42.258Z,24.43
2018-02-18T10:02:09.706Z,25.30
2018-02-18T10:04:37.180Z,24.27
2018-02-18T10:07:04.634Z,22.87
2018-02-18T10:09:32.078Z,23.83
2018-02-18T10:11:59.534Z,21.93
2018-02-18T10:14:27.059Z,24.87
2018-02-18T10:16:55.229Z,22.40
2018-02-18T10:19:22.685Z,24.13
2018-02-18T10:21:50.565Z,22.93
2018-02-18T10:24:18.024Z,24.20
2018-02-18T10:26:45.488Z,22.93
2018-02-18T10:29:12.938Z,23.47
2018-02-18T10:31:40.398Z,22.97
2018-02-18T10:34:08.278Z,23.37
2018-02-18T10:36:36.193Z,23.33
2018-02-18T10:39:03.664Z,24.20
2018-02-18T10:41:31.120Z,21.60
2018-02-18T10:43:58.578Z,21.43
2018-02-18T10:46:26.037Z,21.30
2018-02-18T10:48:53.490Z,24.40
2018-02-18T10:51:20.945Z,21.30
2018-02-18T10:53:48.404Z,23.03
2018-02-18T10:56:17.012Z,22.48
2018-02-18T10:58:44.489Z,24.20
2018-02-18T11:01:12.464Z,23.58
2018-02-18T11:03:40.689Z,24.10
2018-02-18T11:06:08.170Z,21.45
2018-02-18T11:08:38.511Z,21.42
2018-02-18T11:11:06.522Z,22.37
2018-02-18T11:13:33.989Z,23.25
2018-02-18T11:16:01.565Z,20.95
2018-02-18T11:18:29.035Z,19.95
2018-02-18T11:20:56.488Z,21.48
2018-02-18T11:23:24.053Z,20.37
2018-02-18T11:25:51.461Z,20.33
2018-02-18T11:28:20.131Z,18.98
2018-02-18T11:30:48.352Z,17.52
2018-02-18T11:33:15.823Z,18.65
2018-02-18T11:35:43.278Z,19.08
2018-02-18T11:38:10.752Z,19.67
2018-02-18T11:40:38.682Z,17.83
2018-02-18T11:43:20.747Z,17.67
2018-02-18T11:45:48.226Z,18.48
2018-02-18T11:48:16.230Z,17.40
2018-02-18T11:50:43.689Z,19.87
2018-02-18T11:53:11.157Z,19.33
2018-02-18T11:55:38.614Z,16.75
2018-02-18T11:58:06.073Z,17.92
2018-02-18T12:00:34.297Z,18.20
2018-02-18T12:03:01.760Z,17.75
2018-02-18T12:05:29.304Z,20.00
2018-02-18T12:07:57.519Z,21.45
2018-02-18T12:10:24.974Z,20.80
2018-02-18T12:12:52.451Z,21.47
2018-02-18T12:15:19.917Z,21.73
2018-02-18T12:17:48.692Z,20.97
2018-02-18T12:20:16.874Z,23.63
2018-02-18T12:22:45.130Z,23.13
2018-02-18T12:25:12.554Z,22.97
2018-02-18T12:27:40.471Z,21.47
2018-02-18T12:30:10.542Z,19.77
2018-02-18T12:32:37.993Z,20.43
2018-02-18T12:35:05.459Z,20.00
2018-02-18T12:37:32.921Z,20.43
2018-02-18T12:40:00.380Z,20.85
2018-02-18T12:42:27.836Z,20.08
2018-02-18T12:44:55.310Z,18.83
2018-02-18T12:47:23.042Z,19.23
2018-02-18T12:49:50.482Z,20.33
2018-02-18T12:52:18.357Z,22.20
2018-02-18T12:54:45.821Z,21.25
2018-02-18T12:57:13.289Z,22.50
2018-02-18T12:59:40.745Z,21.93
2018-02-18T13:02:08.198Z,20.47
2018-02-18T13:04:36.235Z,20.13
2018-02-18T13:07:04.216Z,17.83
2018-02-18T13:09:31.670Z,19.57
2018-02-18T13:11:59.631Z,19.40
2018-02-18T13:14:27.099Z,20.50
2018-02-18T13:16:54.558Z,18.85
2018-02-18T13:19:22.784Z,20.98
2018-02-18T13:21:51.841Z,19.98
2018-02-18T13:24:19.314Z,18.58
2018-02-18T13:26:47.226Z,18.62
2018-02-18T13:29:14.687Z,21.25
2018-02-18T13:31:42.164Z,19.95
2018-02-18T13:34:09.621Z,18.48
2018-02-18T13:36:37.916Z,18.85
2018-02-18T13:39:05.378Z,18.52
2018-02-18T13:41:32.842Z,19.62
2018-02-18T13:44:01.409Z,19.35
2018-02-18T13:46:28.874Z,20.33
2018-02-18T13:48:56.348Z,18.58
2018-02-18T13:51:27.106Z,18.70
2018-02-18T13:53:54.970Z,19.73
2018-02-18T13:56:22.421Z,20.20
2018-02-18T13:58:51.034Z,18.83
2018-02-18T14:01:19.074Z,19.63
2018-02-18T14:03:47.587Z,17.97
2018-02-18T14:06:15.034Z,18.43
2018-02-18T14:08:42.493Z,18.30
2018-02-18T14:11:09.949Z,17.57
2018-02-18T14:13:37.506Z,18.57
2018-02-18T14:16:04.982Z,18.80
2018-02-18T14:18:32.434Z,18.83
2018-02-18T14:21:00.122Z,18.73
2018-02-18T14:23:27.580Z,18.07
2018-02-18T14:25:55.033Z,18.67
2018-02-18T14:28:22.495Z,18.40
2018-02-18T14:30:50.408Z,18.63
2018-02-18T14:33:17.876Z,19.57
2018-02-18T14:35:45.957Z,19.13
2018-02-18T14:38:13.412Z,19.00
2018-02-18T14:40:40.890Z,17.03
2018-02-18T14:43:22.978Z,17.33
2018-02-18T14:46:02.390Z,18.87
2018-02-18T14:51:44.511Z,18.33
2018-02-18T14:54:24.031Z,16.93
2018-02-18T14:57:02.359Z,18.37
2018-02-18T14:59:30.154Z,19.10
2018-02-18T15:01:57.605Z,20.20
2018-02-18T15:04:25.278Z,18.53
2018-02-18T15:06:53.313Z,18.13
2018-02-18T15:09:21.189Z,17.30
2018-02-18T15:11:48.903Z,17.77
2018-02-18T15:14:16.414Z,16.40
2018-02-18T15:16:43.986Z,16.87
2018-02-18T15:19:11.461Z,16.40
2018-02-18T15:21:39.002Z,16.57
2018-02-18T15:24:06.870Z,17.13
2018-02-18T15:26:34.321Z,17.07
2018-02-18T15:29:02.213Z,17.37
2018-02-18T15:31:29.754Z,17.97
2018-02-18T15:33:57.208Z,17.60
2018-02-18T15:36:24.769Z,18.10
2018-02-18T15:38:52.226Z,18.50
2018-02-18T15:41:22.266Z,19.20
2018-02-18T15:43:50.829Z,18.23
2018-02-18T15:46:18.834Z,16.50
2018-02-18T15:48:48.778Z,17.13
2018-02-18T15:51:17.140Z,16.40
2018-02-18T15:53:44.581Z,16.87
2018-02-18T15:56:12.040Z,17.73
2018-02-18T15:58:39.735Z,18.23
2018-02-18T16:01:07.649Z,19.00
2018-02-18T16:03:35.095Z,19.23
2018-02-18T16:06:02.538Z,19.70
2018-02-18T16:08:29.994Z,20.30
2018-02-18T16:10:57.554Z,19.37
2018-02-18T16:13:25.773Z,20.50
2018-02-18T16:15:53.281Z,19.17
2018-02-18T16:18:20.834Z,19.97
2018-02-18T16:20:48.282Z,20.10
2018-02-18T16:23:15.760Z,19.87
2018-02-18T16:25:44.400Z,19.20
2018-02-18T16:28:12.074Z,20.67
2018-02-18T16:30:39.520Z,18.87
2018-02-18T16:33:07.260Z,20.10
2018-02-18T16:35:35.461Z,19.70
2018-02-18T16:38:03.934Z,19.67
2018-02-18T16:40:31.389Z,19.63
2018-02-18T16:42:59.161Z,18.83
2018-02-18T16:45:27.348Z,18.67
2018-02-18T16:47:56.653Z,19.27
2018-02-18T16:50:24.111Z,18.23
2018-02-18T16:52:51.570Z,19.23
2018-02-18T16:55:19.025Z,18.67
2018-02-18T16:57:46.816Z,18.37
2018-02-18T17:00:14.258Z,19.67
2018-02-18T17:02:42.497Z,21.13
2018-02-18T17:05:13.950Z,21.10
2018-02-18T17:07:42.113Z,22.13
2018-02-18T17:10:09.565Z,21.07
2018-02-18T17:12:37.033Z,21.80
2018-02-18T17:15:05.063Z,22.40
2018-02-18T17:17:33.270Z,18.40
2018-02-18T17:20:00.929Z,19.43
2018-02-18T17:22:29.010Z,16.97
2018-02-18T17:24:56.494Z,19.00
2018-02-18T17:27:23.943Z,18.63
2018-02-18T17:29:51.404Z,16.37
2018-02-18T17:32:18.892Z,17.13
2018-02-18T17:34:47.113Z,16.37
2018-02-18T17:37:14.570Z,14.87
2018-02-18T17:39:42.059Z,15.50
2018-02-18T17:42:09.534Z,14.93
2018-02-18T17:44:37.795Z,14.17
2018-02-18T17:47:05.796Z,14.70
2018-02-18T17:49:34.018Z,15.10
2018-02-18T17:52:04.026Z,14.97
2018-02-18T17:54:31.496Z,15.53
2018-02-18T17:56:59.379Z,18.07
2018-02-18T17:59:26.836Z,18.50
2018-02-18T18:01:54.883Z,20.87
2018-02-18T18:04:22.349Z,20.97
2018-02-18T18:06:49.817Z,22.37
2018-02-18T18:09:17.269Z,22.80
2018-02-18T18:11:46.137Z,23.27
2018-02-18T18:14:13.596Z,23.80
2018-02-18T18:16:41.470Z,23.13
2018-02-18T18:19:08.929Z,22.60
2018-02-18T18:21:36.388Z,19.73
2018-02-18T18:24:04.234Z,18.33
2018-02-18T18:26:31.959Z,16.77
2018-02-18T18:29:00.596Z,16.50
2018-02-18T18:31:28.312Z,16.63
2018-02-18T18:33:55.761Z,16.90
2018-02-18T18:36:23.542Z,15.83
2018-02-18T18:38:51.003Z,15.30
2018-02-18T18:41:18.469Z,16.57
2018-02-18T18:43:45.952Z,15.43
2018-02-18T18:46:13.656Z,16.03
2018-02-18T18:48:41.105Z,17.60
2018-02-18T18:51:08.562Z,19.83
2018-02-18T18:53:36.032Z,23.43
2018-02-18T18:56:03.495Z,27.97
2018-02-18T18:58:30.949Z,28.00
2018-02-18T19:00:58.657Z,27.33
2018-02-18T19:03:26.109Z,27.77
2018-02-18T19:05:54.333Z,29.67
2018-02-18T19:08:21.843Z,30.23
2018-02-18T19:10:49.842Z,30.60
2018-02-18T19:13:18.618Z,31.47
2018-02-18T19:15:46.873Z,31.13
2018-02-18T19:18:14.445Z,31.60
2018-02-18T19:20:41.990Z,33.47
2018-02-18T19:23:09.774Z,32.93
2018-02-18T19:25:37.999Z,33.33
2018-02-18T19:28:05.565Z,34.10
2018-02-18T19:30:33.026Z,33.20
2018-02-18T19:33:00.510Z,32.83
2018-02-18T19:35:29.496Z,32.93
2018-02-18T19:37:56.958Z,33.57
2018-02-18T19:40:25.922Z,36.13
2018-02-18T19:42:53.378Z,36.03
2018-02-18T19:45:20.855Z,37.33
2018-02-18T19:47:48.321Z,37.20
2018-02-18T19:50:15.772Z,35.13
2018-02-18T19:52:44.003Z,36.67
2018-02-18T19:55:11.892Z,36.07
2018-02-18T19:57:39.347Z,33.87
2018-02-18T20:00:06.810Z,33.67
2018-02-18T20:02:34.503Z,34.60
2018-02-18T20:05:02.726Z,33.17
2018-02-18T20:07:30.209Z,30.63
2018-02-18T20:09:57.687Z,32.73
2018-02-18T20:12:28.476Z,27.77
2018-02-18T20:14:55.947Z,24.87
2018-02-18T20:17:24.214Z,25.10
2018-02-18T20:19:51.690Z,23.70
2018-02-18T20:22:19.598Z,22.80
2018-02-18T20:24:47.045Z,22.50
2018-02-18T20:27:15.278Z,20.90
2018-02-18T20:29:43.071Z,20.17
2018-02-18T20:32:10.526Z,21.50
2018-02-18T20:34:38.065Z,20.53
2018-02-18T20:37:06.000Z,21.10
2018-02-18T20:39:33.467Z,22.07
2018-02-18T20:42:00.941Z,21.83
2018-02-18T20:44:28.818Z,20.40
2018-02-18T20:46:57.448Z,20.83
2018-02-18T20:49:24.953Z,20.57
2018-02-18T20:51:53.934Z,21.50
2018-02-18T20:54:21.490Z,20.90
2018-02-18T20:56:49.053Z,21.87
2018-02-18T20:59:16.519Z,21.33
2018-02-18T21:01:44.787Z,20.93
2018-02-18T21:04:12.258Z,20.03
2018-02-18T21:06:39.716Z,20.83
2018-02-18T21:09:07.264Z,22.23
2018-02-18T21:11:35.179Z,21.33
2018-02-18T21:14:02.646Z,22.10
2018-02-18T21:16:30.102Z,20.07
2018-02-18T21:19:04.257Z,21.87
2018-02-18T21:21:31.710Z,23.13
2018-02-18T21:23:59.278Z,24.03
2018-02-18T21:26:27.501Z,22.97
2018-02-18T21:28:54.956Z,25.20
2018-02-18T21:31:22.833Z,23.10
2018-02-18T21:33:50.324Z,24.00
2018-02-18T21:36:19.707Z,24.00
2018-02-18T21:38:47.156Z,24.83
2018-02-18T21:41:14.638Z,23.00
2018-02-18T21:43:42.095Z,25.10
2018-02-18T21:46:09.652Z,23.03
2018-02-18T21:48:37.119Z,23.00
2018-02-18T21:51:05.340Z,22.47
2018-02-18T21:53:33.399Z,23.57
2018-02-18T21:56:01.433Z,22.17
2018-02-18T21:58:28.903Z,22.73
2018-02-18T22:00:57.538Z,21.83
2018-02-18T22:03:25.517Z,24.07
2018-02-18T22:05:53.833Z,23.40
2018-02-18T22:08:23.793Z,23.93
2018-02-18T22:10:51.686Z,24.37
2018-02-18T22:13:19.432Z,24.53
2018-02-18T22:15:46.870Z,23.70
2018-02-18T22:18:14.329Z,23.47
2018-02-18T22:20:42.242Z,24.60
2018-02-18T22:23:11.261Z,25.10
2018-02-18T22:25:41.373Z,28.93
2018-02-18T22:28:09.593Z,27.37
2018-02-18T22:30:37.377Z,23.73
2018-02-18T22:33:04.930Z,24.20
2018-02-18T22:35:32.394Z,23.07
2018-02-18T22:38:00.473Z,24.67
2018-02-18T22:40:28.666Z,23.70
2018-02-18T22:42:56.901Z,22.80
2018-02-18T22:45:24.781Z,22.93
2018-02-18T22:47:53.349Z,23.57
2018-02-18T22:50:20.809Z,22.97
2018-02-18T22:52:48.379Z,24.27
2018-02-18T22:55:15.862Z,24.20
2018-02-18T22:57:44.099Z,23.13
2018-02-18T23:00:17.462Z,22.90
2018-02-18T23:02:44.961Z,21.63
2018-02-18T23:05:18.205Z,22.23
2018-02-18T23:07:45.656Z,22.37
2018-02-18T23:10:13.950Z,22.33
2018-02-18T23:12:41.401Z,21.27
2018-02-18T23:15:08.861Z,21.90
2018-02-18T23:17:36.322Z,22.57
2018-02-18T23:20:03.781Z,21.93
2018-02-18T23:22:31.246Z,22.17
2018-02-18T23:24:58.782Z,21.33
2018-02-18T23:27:26.273Z,21.77
2018-02-18T23:29:53.830Z,22.20
2018-02-18T23:32:21.293Z,20.47
2018-02-18T23:34:50.281Z,21.30
2018-02-18T23:37:17.842Z,20.53
2018-02-18T23:39:45.294Z,20.77
2018-02-18T23:42:12.758Z,19.97
2018-02-18T23:44:42.261Z,21.27
2018-02-18T23:47:09.811Z,20.43
2018-02-18T23:49:39.262Z,20.30
2018-02-18T23:52:07.481Z,20.03
2018-02-18T23:54:35.659Z,19.30
2018-02-18T23:57:05.688Z,19.10
2018-02-18T23:59:34.521Z,19.30
